Latest Weather Observations for Tibooburra Airport

IDN60801

Issued at 5:05 am EDT Saturday 29 November 2014 (issued every 30 minutes, with the page automatically refreshed every 10 minutes)

About weather observations | Map of weather stations | Latest weather observations for NSW | Other Formats
Station Details ID: 046126 Name: TIBOOBURRA AIRPORT Lat: -29.44 Lon: 142.06 Height: 176.4 m
Data from the previous 72 hours. | See also: Recent months for locations in New South Wales
Date/Time
EDT
Temp
°C
App
Temp
°C
Dew
Point
Rel
Hum
%
Delta-T
°C
Wind Press
QNH
hPa
Press
MSL
hPa
Rain
since 9 am
mm
Dir
 
Spd
km/h
Gust
km/h
Spd
kts
Gust
kts
29/05:00am 25.1 19.3 -1.6 17 12.1 SE 19 22 10 12 1010.5 1009.5 0.0
29/04:30am 25.3 19.9 -1.5 17 12.1 SSE 17 20 9 11 1010.5 1009.5 0.0
29/04:00am 25.9 20.1 -0.2 18 12.2 SSE 20 24 11 13 1010.1 1009.2 0.0
29/03:30am 25.5 20.3 0.2 19 11.8 S 17 22 9 12 1010.2 1009.3 0.0
29/03:00am 25.0 21.3 -0.2 19 11.7 S 9 11 5 6 1010.6 1009.6 0.0
29/02:30am 25.9 21.8 -0.2 18 12.2 SSE 11 13 6 7 1010.8 1009.8 0.0
29/02:00am 25.7 21.2 -0.4 18 12.1 S 13 15 7 8 1010.9 1009.9 0.0
29/01:30am 26.0 21.2 -0.1 18 12.2 S 15 17 8 9 1011.1 1010.2 0.0
29/01:00am 24.8 20.5 1.0 21 11.2 S 13 15 7 8 1011.5 1010.6 0.0
29/12:30am 25.6 21.3 1.0 20 11.7 S 13 13 7 7 1011.9 1011.0 0.0
29/12:00am 26.2 22.2 0.8 19 12.1 S 11 13 6 7 1012.2 1011.3 0.0
 
Date/Time
EDT
Temp
°C
App
Temp
°C
Dew
Point
Rel
Hum
%
Delta-T
°C
Wind Press
QNH
hPa
Press
MSL
hPa
Rain
since 9 am
mm
Dir
 
Spd
km/h
Gust
km/h
Spd
kts
Gust
kts
28/11:30pm 27.2 22.9 0.8 18 12.6 S 13 15 7 8 1012.3 1011.4 0.0
28/11:00pm 27.4 23.1 1.0 18 12.7 S 13 15 7 8 1012.5 1011.6 0.0
28/10:30pm 28.1 23.8 0.8 17 13.1 S 13 13 7 7 1012.4 1011.5 0.0
28/10:00pm 29.0 24.8 1.5 17 13.5 S 13 15 7 8 1012.3 1011.4 0.0
28/09:30pm 29.8 25.9 1.3 16 14.0 S 11 11 6 6 1012.1 1011.2 0.0
28/09:00pm 31.2 27.4 1.5 15 14.8 S 11 15 6 8 1011.9 1011.0 0.0
28/08:30pm 32.3 27.3 1.4 14 15.5 SSE 17 22 9 12 1011.6 1010.7 0.0
28/08:00pm 33.3 28.1 0.1 12 16.4 S 17 20 9 11 1011.5 1010.6 0.0
28/07:30pm 33.8 28.1 0.5 12 16.6 S 20 26 11 14 1011.4 1010.5 0.0
28/07:00pm 34.1 29.0 0.7 12 16.7 S 17 28 9 15 1011.3 1010.4 0.0
28/06:30pm 35.1 29.0 0.2 11 17.4 S 22 30 12 16 1011.2 1010.3 0.0
28/06:00pm 35.0 29.8 0.2 11 17.4 SSE 17 22 9 12 1011.2 1010.3 0.0
28/05:30pm 34.8 29.2 0.0 11 17.3 S 19 26 10 14 1011.3 1010.4 0.0
28/05:00pm 35.8 29.9 -0.5 10 18.0 S 20 26 11 14 1011.7 1010.8 0.0
28/04:30pm 35.2 29.8 -1.0 10 17.7 ESE 17 20 9 11 1012.0 1011.1 0.0
28/04:00pm 35.1 31.1 0.2 11 17.4 WSW 11 17 6 9 1012.3 1011.4 0.0
28/03:30pm 35.3 31.3 0.4 11 17.5 SE 11 20 6 11 1012.5 1011.6 0.0
28/03:00pm 34.8 30.0 0.0 11 17.3 SSW 15 20 8 11 1013.1 1012.2 0.0
28/02:30pm 35.5 29.8 -0.8 10 17.9 S 19 26 10 14 1013.4 1012.5 0.0
28/02:00pm 34.3 28.5 -0.4 11 17.1 SSW 20 24 11 13 1013.7 1012.8 0.0
28/01:30pm 34.0 28.7 -0.6 11 16.9 SE 17 32 9 17 1014.1 1013.2 0.0
28/01:00pm 34.0 29.1 -0.6 11 16.9 SE 15 22 8 12 1014.8 1013.9 0.0
28/12:30pm 34.3 28.6 -0.4 11 17.1 SE 19 30 10 16 1015.2 1014.3 0.0
28/12:00pm 33.9 28.4 0.5 12 16.6 SSE 19 24 10 13 1015.3 1014.4 0.0
28/11:30am 32.4 26.5 -0.6 12 16.0 SSE 20 28 11 15 1015.7 1014.8 0.0
28/11:00am 31.2 25.5 -0.5 13 15.2 SE 19 28 10 15 1016.0 1015.2 0.0
28/10:30am 30.7 24.2 0.2 14 14.8 SE 24 33 13 18 1016.4 1015.5 0.0
28/10:00am 29.8 22.0 -0.5 14 14.4 ESE 30 39 16 21 1016.5 1015.6 0.0
28/09:30am 28.9 21.0 -1.2 14 14.1 ESE 30 39 16 21 1016.5 1015.6 0.0
28/09:00am 27.7 20.1 -2.2 14 13.6 SE 28 35 15 19 1016.4 1015.5 0.0
28/08:30am 26.2 18.2 -2.4 15 12.8 SE 30 41 16 22 1016.3 1015.4 0.0
28/08:00am 24.9 18.1 -1.8 17 12.0 SE 24 33 13 18 1015.7 1014.8 0.0
28/07:30am 23.7 17.6 0.1 21 10.9 SE 22 30 12 16 1015.7 1014.8 0.0
28/07:00am 22.5 17.1 1.5 25 9.8 SE 19 26 10 14 1015.6 1014.7 0.0
28/06:30am 22.4 17.1 2.0 26 9.6 SE 19 24 10 13 1015.4 1014.5 0.0
28/06:00am 22.6 17.2 2.7 27 9.5 SE 20 28 11 15 1015.2 1014.3 0.0
28/05:30am 22.8 17.6 3.4 28 9.4 SE 20 28 11 15 1014.8 1013.9 0.0
28/05:00am 23.0 17.8 3.5 28 9.5 SE 20 28 11 15 1014.6 1013.7 0.0
28/04:30am 23.2 18.0 3.7 28 9.6 SE 20 28 11 15 1014.4 1013.5 0.0
28/04:00am 23.7 18.5 3.6 27 9.9 SE 20 28 11 15 1014.4 1013.5 0.0
28/03:30am 24.2 18.5 2.9 25 10.4 SE 22 33 12 18 1014.4 1013.5 0.0
28/03:00am 24.5 19.1 2.6 24 10.6 SSE 20 30 11 16 1014.5 1013.6 0.0
28/02:30am 25.3 19.6 2.7 23 11.0 SE 22 32 12 17 1014.6 1013.7 0.0
28/02:00am 26.2 20.0 2.2 21 11.7 SE 24 32 13 17 1014.9 1014.0 0.0
28/01:30am 26.3 20.9 2.3 21 11.7 SE 20 28 11 15 1015.3 1014.4 0.0
28/01:00am 26.5 20.9 1.0 19 12.2 SSE 20 26 11 14 1015.5 1014.6 0.0
28/12:30am 26.9 21.4 0.6 18 12.5 SSE 19 24 10 13 1015.8 1014.9 0.0
28/12:00am 27.0 21.8 -0.1 17 12.7 SE 17 22 9 12 1015.9 1015.0 0.0
 
Date/Time
EDT
Temp
°C
App
Temp
°C
Dew
Point
Rel
Hum
%
Delta-T
°C
Wind Press
QNH
hPa
Press
MSL
hPa
Rain
since 9 am
mm
Dir
 
Spd
km/h
Gust
km/h
Spd
kts
Gust
kts
27/11:30pm 27.3 22.1 0.1 17 12.9 SSE 17 22 9 12 1016.1 1015.3 0.0
27/11:00pm 27.6 22.3 -0.5 16 13.2 SSE 17 20 9 11 1016.1 1015.3 0.0
27/10:30pm 27.9 23.0 -0.2 16 13.3 SSE 15 20 8 11 1015.9 1015.0 0.0
27/10:00pm 28.7 23.2 0.4 16 13.6 SSE 19 24 10 13 1015.7 1014.8 0.0
27/09:30pm 29.3 23.5 0.0 15 14.0 SSE 20 28 11 15 1015.6 1014.7 0.0
27/09:00pm 29.8 24.1 0.4 15 14.2 SSE 20 26 11 14 1015.3 1014.4 0.0
27/08:30pm 30.3 24.3 0.8 15 14.4 SSE 22 30 12 16 1015.1 1014.2 0.0
27/08:00pm 31.0 24.9 0.4 14 14.9 SSE 22 32 12 17 1014.9 1014.0 0.0
27/07:30pm 31.7 25.3 1.0 14 15.2 SSE 24 33 13 18 1014.8 1013.9 0.0
27/07:00pm 32.4 26.5 1.5 14 15.5 SSE 22 32 12 17 1014.5 1013.6 0.0
27/06:30pm 32.4 26.7 0.5 13 15.7 SSE 20 32 11 17 1014.3 1013.4 0.0
27/06:00pm 32.8 26.8 0.8 13 15.9 SSE 22 32 12 17 1014.2 1013.3 0.0
27/05:30pm 33.3 27.5 0.1 12 16.4 SE 20 28 11 15 1014.3 1013.4 0.0
27/05:00pm 33.2 27.4 0.0 12 16.3 S 20 30 11 16 1014.5 1013.6 0.0
27/04:30pm 33.6 27.5 0.3 12 16.5 SSE 22 30 12 16 1014.6 1013.7 0.0
27/04:00pm 34.0 27.4 -0.6 11 16.9 E 24 35 13 19 1014.8 1013.9 0.0
27/03:30pm 33.7 27.6 -2.1 10 17.1 S 20 32 11 17 1015.1 1014.2 0.0
27/03:00pm 33.7 29.1 -0.8 11 16.8 SE 13 24 7 13 1015.5 1014.6 0.0
27/02:30pm 33.4 27.5 -1.0 11 16.7 SSE 20 30 11 16 1016.1 1015.3 0.0
27/02:00pm 32.6 26.4 -0.5 12 16.1 SSE 22 32 12 17 1016.5 1015.6 0.0
27/01:30pm 32.6 26.1 0.6 13 15.8 SE 24 37 13 20 1017.1 1016.2 0.0
27/01:00pm 31.4 25.2 -0.3 13 15.3 SSE 22 33 12 18 1017.4 1016.5 0.0
27/12:30pm 31.6 25.0 -0.1 13 15.4 SE 24 37 13 20 1017.8 1016.9 0.0
27/12:00pm 30.1 23.3 0.6 15 14.3 ESE 26 35 14 19 1018.2 1017.3 0.0
27/11:30am 29.6 22.2 2.0 17 13.7 ESE 30 39 16 21 1018.6 1017.7 0.0
27/11:00am 29.4 22.0 1.8 17 13.6 ESE 30 43 16 23 1018.9 1018.0 0.0
27/10:30am 27.8 20.1 2.1 19 12.6 ESE 32 44 17 24 1018.9 1018.0 0.0
27/10:00am 27.1 19.9 2.9 21 12.0 ESE 30 41 16 22 1019.0 1018.1 0.0
27/09:30am 25.8 18.5 2.5 22 11.4 SE 30 39 16 21 1019.1 1018.2 0.0
27/09:00am 24.5 16.9 2.6 24 10.6 SE 32 37 17 20 1019.0 1018.1 0.0
27/08:30am 23.2 15.9 2.7 26 9.9 SE 30 39 16 21 1018.8 1017.9 0.0
27/08:00am 22.5 15.6 2.6 27 9.5 SE 28 37 15 20 1018.6 1017.7 0.0
27/07:30am 21.0 14.9 2.8 30 8.6 SE 24 33 13 18 1018.5 1017.6 0.0
27/07:00am 20.3 15.0 3.1 32 8.2 SSE 20 28 11 15 1018.2 1017.3 0.0
27/06:30am 19.7 14.3 2.6 32 8.0 SSE 20 26 11 14 1017.9 1017.0 0.0
27/06:00am 19.8 14.4 2.6 32 8.0 SSE 20 28 11 15 1017.5 1016.6 0.0
27/05:30am 20.1 14.0 2.5 31 8.3 SSE 24 30 13 16 1017.0 1016.1 0.0
27/05:00am 20.5 14.6 1.9 29 8.6 SSE 22 28 12 15 1016.9 1016.0 0.0
27/04:30am 20.8 14.9 1.6 28 8.9 SSE 22 32 12 17 1016.6 1015.7 0.0
27/04:00am 21.3 15.8 1.6 27 9.1 SSE 20 28 11 15 1016.7 1015.8 0.0
27/03:30am 21.7 15.7 0.8 25 9.6 SSE 22 32 12 17 1016.5 1015.6 0.0
27/03:00am 22.6 16.1 0.4 23 10.2 SSE 24 35 13 19 1016.5 1015.6 0.0
27/02:30am 23.1 16.6 0.2 22 10.5 SSE 24 32 13 17 1016.7 1015.8 0.0
27/02:00am 23.5 16.9 -0.1 21 10.8 SE 24 30 13 16 1016.8 1015.9 0.0
27/01:30am 23.8 17.9 -0.5 20 11.1 SE 20 28 11 15 1017.1 1016.2 0.0
27/01:00am 24.1 17.8 -0.9 19 11.3 SSE 22 30 12 16 1017.2 1016.3 0.0
27/12:30am 24.3 18.6 -0.8 19 11.4 SSE 19 26 10 14 1017.6 1016.7 0.0
27/12:00am 24.8 18.5 -1.1 18 11.7 SE 22 28 12 15 1017.7 1016.8 0.0
 
Date/Time
EDT
Temp
°C
App
Temp
°C
Dew
Point
Rel
Hum
%
Delta-T
°C
Wind Press
QNH
hPa
Press
MSL
hPa
Rain
since 9 am
mm
Dir
 
Spd
km/h
Gust
km/h
Spd
kts
Gust
kts
26/11:30pm 24.7 19.3 -1.2 18 11.7 SSE 17 22 9 12 1017.8 1016.9 0.0
26/11:00pm 25.0 19.9 -1.7 17 12.0 SSE 15 20 8 11 1017.5 1016.6 0.0
26/10:30pm 25.9 20.1 -1.8 16 12.5 SSE 19 24 10 13 1017.2 1016.3 0.0
26/10:00pm 26.4 20.2 -5.3 12 13.5 SSE 19 22 10 12 1017.1 1016.2 0.0
26/09:30pm 27.0 19.3 -33.5 1 16.0 SSE 20 26 11 14 1016.8 1015.9 0.0
26/09:00pm 28.0 - - - - SSE 20 30 11 16 1016.5 1015.6 0.0
26/08:30pm 28.8 - - - - SSE 24 32 13 17 1015.8 1014.9 0.0
26/08:00pm 29.6 - - - - SSE 24 32 13 17 1015.5 1014.6 0.0
26/07:30pm 30.4 - - - - SSE 24 32 13 17 1015.4 1014.5 0.0
26/07:00pm 31.1 - - - - SSE 24 35 13 19 1015.3 1014.4 0.0
26/06:30pm 31.3 - - - - SE 26 37 14 20 1015.1 1014.2 0.0
26/06:00pm 31.3 - - - - SSE 28 39 15 21 1015.2 1014.3 0.0
26/05:30pm 31.9 - - - - SSE 24 41 13 22 1015.1 1014.2 0.0
26/05:00pm 31.9 - - - - SSE 17 32 9 17 1015.2 1014.3 0.0
26/04:30pm 32.0 - - - - S 15 24 8 13 1015.3 1014.4 0.0
26/04:00pm 31.9 - - - - SE 22 33 12 18 1015.5 1014.6 0.0
26/03:30pm 31.6 25.8 -5.1 9 16.4 SSE 17 26 9 14 1015.8 1014.9 0.0
26/03:00pm 30.5 24.3 -3.3 11 15.4 SSE 20 32 11 17 1016.4 1015.5 0.0
26/02:30pm 30.9 - - - - SE 17 26 9 14 1016.7 1015.8 0.0
26/02:00pm 30.0 23.9 -2.5 12 15.0 SE 20 26 11 14 1017.1 1016.2 0.0
26/01:30pm 30.0 24.3 -0.4 14 14.5 SE 19 32 10 17 1017.6 1016.7 0.0
26/01:00pm 29.1 23.4 -1.1 14 14.1 ESE 19 26 10 14 1018.0 1017.1 0.0
26/12:30pm 28.9 23.3 -0.3 15 13.9 ENE 19 28 10 15 1018.5 1017.6 0.0
26/12:00pm 28.8 23.1 0.5 16 13.6 E 20 32 11 17 1018.7 1017.8 0.0
26/11:30am 27.6 21.1 0.4 17 13.0 E 24 35 13 19 1019.0 1018.1 0.0
26/11:00am 27.4 20.4 -0.6 16 13.1 ESE 26 35 14 19 1019.2 1018.3 0.0
26/10:30am 26.3 18.9 -0.7 17 12.5 SE 28 39 15 21 1019.2 1018.3 0.0
26/10:00am 25.2 17.8 -0.8 18 11.9 SE 28 41 15 22 1019.3 1018.4 0.0
26/09:30am 23.9 15.9 0.3 21 10.9 SE 32 41 17 22 1019.3 1018.4 0.0
26/09:00am 22.7 14.7 0.5 23 10.2 SE 32 39 17 21 1019.3 1018.4 0.0
26/08:30am 21.6 14.4 0.8 25 9.5 SE 28 35 15 19 1019.1 1018.2 0.0
26/08:00am 20.3 13.1 0.7 27 8.9 ESE 28 35 15 19 1019.0 1018.1 0.0
26/07:30am 19.1 13.4 0.7 29 8.3 SE 20 28 11 15 1018.7 1017.8 0.0
26/07:00am 18.1 12.6 0.7 31 7.7 SE 19 26 10 14 1018.3 1017.4 0.0
26/06:30am 17.4 11.9 0.6 32 7.4 SE 19 24 10 13 1017.8 1016.9 0.0
26/06:00am 17.4 11.7 0.6 32 7.4 SSE 20 24 11 13 1017.4 1016.5 0.0
26/05:30am 17.7 12.2 0.4 31 7.6 SE 19 24 10 13 1017.3 1016.4 0.0

Other Formats:

Comma delimited format used in spreadsheet applications
http://www.bom.gov.au/fwo/IDN60801/IDN60801.95485.axf

JavaScript Object Notation format (JSON) in row-major order
http://www.bom.gov.au/fwo/IDN60801/IDN60801.95485.json